sensor_id;sensor_type;location;lat;lon;timestamp;temperature;humidity
49777;DHT22;35673;51.482;7.436;2023-01-26T00:00:40;0.10;99.90
49777;DHT22;35673;51.482;7.436;2023-01-26T00:03:06;0.10;99.90
49777;DHT22;35673;51.482;7.436;2023-01-26T00:05:31;0.00;99.90
49777;DHT22;35673;51.482;7.436;2023-01-26T00:07:57;0.10;99.90
49777;DHT22;35673;51.482;7.436;2023-01-26T00:10:22;0.00;99.90
49777;DHT22;35673;51.482;7.436;2023-01-26T00:12:48;0.00;99.90
49777;DHT22;35673;51.482;7.436;2023-01-26T00:15:13;-0.10;99.90
49777;DHT22;35673;51.482;7.436;2023-01-26T00:17:39;-0.10;99.90
49777;DHT22;35673;51.482;7.436;2023-01-26T00:20:04;0.00;99.90
49777;DHT22;35673;51.482;7.436;2023-01-26T00:22:30;0.00;99.90
49777;DHT22;35673;51.482;7.436;2023-01-26T00:24:55;0.00;99.90
49777;DHT22;35673;51.482;7.436;2023-01-26T00:27:21;0.00;99.90
49777;DHT22;35673;51.482;7.436;2023-01-26T00:29:46;0.00;99.90
49777;DHT22;35673;51.482;7.436;2023-01-26T00:32:11;0.00;99.90
49777;DHT22;35673;51.482;7.436;2023-01-26T00:34:37;0.00;99.90
49777;DHT22;35673;51.482;7.436;2023-01-26T00:37:02;0.20;99.90
49777;DHT22;35673;51.482;7.436;2023-01-26T00:39:28;0.20;99.90
49777;DHT22;35673;51.482;7.436;2023-01-26T00:41:53;0.10;99.90
49777;DHT22;35673;51.482;7.436;2023-01-26T00:44:32;0.20;99.90
49777;DHT22;35673;51.482;7.436;2023-01-26T00:46:58;0.30;99.90
49777;DHT22;35673;51.482;7.436;2023-01-26T00:49:23;0.30;99.90
49777;DHT22;35673;51.482;7.436;2023-01-26T00:51:49;0.00;99.90
49777;DHT22;35673;51.482;7.436;2023-01-26T00:54:14;-0.10;99.90
49777;DHT22;35673;51.482;7.436;2023-01-26T00:56:40;0.00;99.90
49777;DHT22;35673;51.482;7.436;2023-01-26T00:59:05;0.10;99.90
49777;DHT22;35673;51.482;7.436;2023-01-26T01:01:31;0.10;99.90
49777;DHT22;35673;51.482;7.436;2023-01-26T01:03:56;0.10;99.90
49777;DHT22;35673;51.482;7.436;2023-01-26T01:06:22;0.20;99.90
49777;DHT22;35673;51.482;7.436;2023-01-26T01:08:47;0.10;99.90
49777;DHT22;35673;51.482;7.436;2023-01-26T01:11:12;0.10;99.90
49777;DHT22;35673;51.482;7.436;2023-01-26T01:13:38;0.10;99.90
49777;DHT22;35673;51.482;7.436;2023-01-26T01:16:05;0.00;99.90
49777;DHT22;35673;51.482;7.436;2023-01-26T01:18:31;0.00;99.90
49777;DHT22;35673;51.482;7.436;2023-01-26T01:20:56;0.10;99.90
49777;DHT22;35673;51.482;7.436;2023-01-26T01:23:21;0.10;99.90
49777;DHT22;35673;51.482;7.436;2023-01-26T01:25:55;0.10;99.90
49777;DHT22;35673;51.482;7.436;2023-01-26T01:28:20;0.10;99.90
49777;DHT22;35673;51.482;7.436;2023-01-26T01:30:46;0.20;99.90
49777;DHT22;35673;51.482;7.436;2023-01-26T01:33:11;0.20;99.90
49777;DHT22;35673;51.482;7.436;2023-01-26T01:35:37;0.30;99.90
49777;DHT22;35673;51.482;7.436;2023-01-26T01:38:02;0.20;99.90
49777;DHT22;35673;51.482;7.436;2023-01-26T01:40:28;0.10;99.90
49777;DHT22;35673;51.482;7.436;2023-01-26T01:42:53;0.20;99.90
49777;DHT22;35673;51.482;7.436;2023-01-26T01:47:50;0.30;99.90
49777;DHT22;35673;51.482;7.436;2023-01-26T01:50:17;0.10;99.90
49777;DHT22;35673;51.482;7.436;2023-01-26T01:52:43;0.10;99.90
49777;DHT22;35673;51.482;7.436;2023-01-26T01:55:09;0.10;99.90
49777;DHT22;35673;51.482;7.436;2023-01-26T01:57:36;0.00;99.90
49777;DHT22;35673;51.482;7.436;2023-01-26T02:03:12;0.00;99.90
49777;DHT22;35673;51.482;7.436;2023-01-26T02:08:30;-0.10;99.90
49777;DHT22;35673;51.482;7.436;2023-01-26T02:10:57;0.00;99.90
49777;DHT22;35673;51.482;7.436;2023-01-26T02:13:23;-0.10;99.90
49777;DHT22;35673;51.482;7.436;2023-01-26T02:15:50;-0.10;99.90
49777;DHT22;35673;51.482;7.436;2023-01-26T02:18:16;-0.10;99.90
49777;DHT22;35673;51.482;7.436;2023-01-26T02:20:42;-0.20;99.90
49777;DHT22;35673;51.482;7.436;2023-01-26T02:23:19;-0.10;99.90
49777;DHT22;35673;51.482;7.436;2023-01-26T02:28:13;0.00;99.90
49777;DHT22;35673;51.482;7.436;2023-01-26T02:30:39;0.10;99.90
49777;DHT22;35673;51.482;7.436;2023-01-26T02:33:04;0.20;99.90
49777;DHT22;35673;51.482;7.436;2023-01-26T02:35:30;0.10;99.90
49777;DHT22;35673;51.482;7.436;2023-01-26T02:37:55;0.10;99.90
49777;DHT22;35673;51.482;7.436;2023-01-26T02:40:40;0.00;99.90
49777;DHT22;35673;51.482;7.436;2023-01-26T02:43:07;0.00;99.90
49777;DHT22;35673;51.482;7.436;2023-01-26T02:45:32;0.00;99.90
49777;DHT22;35673;51.482;7.436;2023-01-26T02:47:58;-0.10;99.90
49777;DHT22;35673;51.482;7.436;2023-01-26T02:50:29;0.00;99.90
49777;DHT22;35673;51.482;7.436;2023-01-26T02:52:54;0.00;99.90
49777;DHT22;35673;51.482;7.436;2023-01-26T02:55:20;0.00;99.90
49777;DHT22;35673;51.482;7.436;2023-01-26T02:57:56;0.00;99.90
49777;DHT22;35673;51.482;7.436;2023-01-26T03:00:24;0.10;99.90
49777;DHT22;35673;51.482;7.436;2023-01-26T03:02:50;0.10;99.90
49777;DHT22;35673;51.482;7.436;2023-01-26T03:05:16;0.00;99.90
49777;DHT22;35673;51.482;7.436;2023-01-26T03:07:41;0.00;99.90
49777;DHT22;35673;51.482;7.436;2023-01-26T03:10:07;0.00;99.90
49777;DHT22;35673;51.482;7.436;2023-01-26T03:12:33;0.00;99.90
49777;DHT22;35673;51.482;7.436;2023-01-26T03:14:59;0.00;99.90
49777;DHT22;35673;51.482;7.436;2023-01-26T03:18:07;0.00;99.90
49777;DHT22;35673;51.482;7.436;2023-01-26T03:20:51;0.00;99.90
49777;DHT22;35673;51.482;7.436;2023-01-26T03:23:35;0.10;99.90
49777;DHT22;35673;51.482;7.436;2023-01-26T03:26:18;0.10;99.90
49777;DHT22;35673;51.482;7.436;2023-01-26T03:29:03;0.10;99.90
49777;DHT22;35673;51.482;7.436;2023-01-26T03:31:28;0.10;99.90
49777;DHT22;35673;51.482;7.436;2023-01-26T03:33:53;0.00;99.90
49777;DHT22;35673;51.482;7.436;2023-01-26T03:36:19;0.10;99.90
49777;DHT22;35673;51.482;7.436;2023-01-26T03:38:44;0.20;99.90
49777;DHT22;35673;51.482;7.436;2023-01-26T03:41:10;0.20;99.90
49777;DHT22;35673;51.482;7.436;2023-01-26T03:43:54;0.20;99.90
49777;DHT22;35673;51.482;7.436;2023-01-26T03:46:37;0.20;99.90
49777;DHT22;35673;51.482;7.436;2023-01-26T03:49:22;0.20;99.90
49777;DHT22;35673;51.482;7.436;2023-01-26T03:52:06;0.20;99.90
49777;DHT22;35673;51.482;7.436;2023-01-26T03:54:50;0.20;99.90
49777;DHT22;35673;51.482;7.436;2023-01-26T03:57:34;0.20;99.90
49777;DHT22;35673;51.482;7.436;2023-01-26T03:59:59;0.20;99.90
49777;DHT22;35673;51.482;7.436;2023-01-26T04:02:25;0.30;99.90
49777;DHT22;35673;51.482;7.436;2023-01-26T04:05:09;0.30;99.90
49777;DHT22;35673;51.482;7.436;2023-01-26T04:07:53;0.30;99.90
49777;DHT22;35673;51.482;7.436;2023-01-26T04:10:37;0.30;99.90
49777;DHT22;35673;51.482;7.436;2023-01-26T04:13:03;0.30;99.90
49777;DHT22;35673;51.482;7.436;2023-01-26T04:15:47;0.30;99.90
49777;DHT22;35673;51.482;7.436;2023-01-26T04:18:31;0.20;99.90
49777;DHT22;35673;51.482;7.436;2023-01-26T04:21:15;0.30;99.90
49777;DHT22;35673;51.482;7.436;2023-01-26T04:23:54;0.40;99.90
49777;DHT22;35673;51.482;7.436;2023-01-26T04:26:23;0.40;99.90
49777;DHT22;35673;51.482;7.436;2023-01-26T04:28:49;0.40;99.90
49777;DHT22;35673;51.482;7.436;2023-01-26T04:31:14;0.50;99.90
49777;DHT22;35673;51.482;7.436;2023-01-26T04:33:40;0.50;99.90
49777;DHT22;35673;51.482;7.436;2023-01-26T04:36:07;0.50;99.90
49777;DHT22;35673;51.482;7.436;2023-01-26T04:38:32;0.50;99.90
49777;DHT22;35673;51.482;7.436;2023-01-26T04:40:58;0.50;99.90
49777;DHT22;35673;51.482;7.436;2023-01-26T04:43:24;0.50;99.90
49777;DHT22;35673;51.482;7.436;2023-01-26T04:45:58;0.50;99.90
49777;DHT22;35673;51.482;7.436;2023-01-26T04:48:24;0.40;99.90
49777;DHT22;35673;51.482;7.436;2023-01-26T04:50:59;0.40;99.90
49777;DHT22;35673;51.482;7.436;2023-01-26T04:53:25;0.50;99.90
49777;DHT22;35673;51.482;7.436;2023-01-26T04:55:50;0.50;99.90
49777;DHT22;35673;51.482;7.436;2023-01-26T04:58:16;0.50;99.90
49777;DHT22;35673;51.482;7.436;2023-01-26T05:00:41;0.50;99.90
49777;DHT22;35673;51.482;7.436;2023-01-26T05:03:07;0.50;99.90
49777;DHT22;35673;51.482;7.436;2023-01-26T05:05:36;0.60;99.90
49777;DHT22;35673;51.482;7.436;2023-01-26T05:08:02;0.60;99.90
49777;DHT22;35673;51.482;7.436;2023-01-26T05:10:27;0.60;99.90
49777;DHT22;35673;51.482;7.436;2023-01-26T05:12:53;0.60;99.90
49777;DHT22;35673;51.482;7.436;2023-01-26T05:15:18;0.60;99.90
49777;DHT22;35673;51.482;7.436;2023-01-26T05:17:43;0.70;99.90
49777;DHT22;35673;51.482;7.436;2023-01-26T05:20:09;0.60;99.90
49777;DHT22;35673;51.482;7.436;2023-01-26T05:22:35;0.70;99.90
49777;DHT22;35673;51.482;7.436;2023-01-26T05:25:00;0.60;99.90
49777;DHT22;35673;51.482;7.436;2023-01-26T05:27:26;0.60;99.90
49777;DHT22;35673;51.482;7.436;2023-01-26T05:29:51;0.60;99.90
49777;DHT22;35673;51.482;7.436;2023-01-26T05:32:17;0.60;99.90
49777;DHT22;35673;51.482;7.436;2023-01-26T05:34:43;0.60;99.90
49777;DHT22;35673;51.482;7.436;2023-01-26T05:37:09;0.60;99.90
49777;DHT22;35673;51.482;7.436;2023-01-26T05:39:34;0.60;99.90
49777;DHT22;35673;51.482;7.436;2023-01-26T05:42:00;0.60;99.90
49777;DHT22;35673;51.482;7.436;2023-01-26T05:44:25;0.60;99.90
49777;DHT22;35673;51.482;7.436;2023-01-26T05:46:51;0.60;99.90
49777;DHT22;35673;51.482;7.436;2023-01-26T05:49:16;0.60;99.90
49777;DHT22;35673;51.482;7.436;2023-01-26T05:51:42;0.60;99.90
49777;DHT22;35673;51.482;7.436;2023-01-26T05:54:07;0.60;99.90
49777;DHT22;35673;51.482;7.436;2023-01-26T05:56:33;0.60;99.90
49777;DHT22;35673;51.482;7.436;2023-01-26T05:58:58;0.60;99.90
49777;DHT22;35673;51.482;7.436;2023-01-26T06:01:24;0.70;99.90
49777;DHT22;35673;51.482;7.436;2023-01-26T06:03:49;0.70;99.90
49777;DHT22;35673;51.482;7.436;2023-01-26T06:06:15;0.70;99.90
49777;DHT22;35673;51.482;7.436;2023-01-26T06:08:40;0.70;99.90
49777;DHT22;35673;51.482;7.436;2023-01-26T06:11:05;0.70;99.90
49777;DHT22;35673;51.482;7.436;2023-01-26T06:13:31;0.70;99.90
49777;DHT22;35673;51.482;7.436;2023-01-26T06:15:59;0.70;99.90
49777;DHT22;35673;51.482;7.436;2023-01-26T06:18:24;0.70;99.90
49777;DHT22;35673;51.482;7.436;2023-01-26T06:20:50;0.70;99.90
49777;DHT22;35673;51.482;7.436;2023-01-26T06:23:15;0.70;99.90
49777;DHT22;35673;51.482;7.436;2023-01-26T06:25:40;0.70;99.90
49777;DHT22;35673;51.482;7.436;2023-01-26T06:28:06;0.70;99.90
49777;DHT22;35673;51.482;7.436;2023-01-26T06:30:31;0.80;99.90
49777;DHT22;35673;51.482;7.436;2023-01-26T06:32:58;0.80;99.90
49777;DHT22;35673;51.482;7.436;2023-01-26T06:35:24;0.80;99.90
49777;DHT22;35673;51.482;7.436;2023-01-26T06:37:51;0.80;99.90
49777;DHT22;35673;51.482;7.436;2023-01-26T06:40:17;0.80;99.90
49777;DHT22;35673;51.482;7.436;2023-01-26T06:42:47;0.80;99.90
49777;DHT22;35673;51.482;7.436;2023-01-26T06:45:13;0.70;99.90
49777;DHT22;35673;51.482;7.436;2023-01-26T06:47:43;0.70;99.90
49777;DHT22;35673;51.482;7.436;2023-01-26T06:50:08;0.70;99.90
49777;DHT22;35673;51.482;7.436;2023-01-26T06:52:34;0.80;99.90
49777;DHT22;35673;51.482;7.436;2023-01-26T06:55:00;0.70;99.90
49777;DHT22;35673;51.482;7.436;2023-01-26T06:57:25;0.80;99.90
49777;DHT22;35673;51.482;7.436;2023-01-26T06:59:51;0.80;99.90
49777;DHT22;35673;51.482;7.436;2023-01-26T07:02:17;0.80;99.90
49777;DHT22;35673;51.482;7.436;2023-01-26T07:04:44;0.80;99.90
49777;DHT22;35673;51.482;7.436;2023-01-26T07:07:09;0.70;99.90
49777;DHT22;35673;51.482;7.436;2023-01-26T07:09:35;0.60;99.90
49777;DHT22;35673;51.482;7.436;2023-01-26T07:12:00;0.50;99.90
49777;DHT22;35673;51.482;7.436;2023-01-26T07:14:26;0.50;99.90
49777;DHT22;35673;51.482;7.436;2023-01-26T07:16:51;0.60;99.90
49777;DHT22;35673;51.482;7.436;2023-01-26T07:19:17;0.60;99.90
49777;DHT22;35673;51.482;7.436;2023-01-26T07:21:42;0.60;99.90
49777;DHT22;35673;51.482;7.436;2023-01-26T07:24:08;0.60;99.90
49777;DHT22;35673;51.482;7.436;2023-01-26T07:26:33;0.60;99.90
49777;DHT22;35673;51.482;7.436;2023-01-26T07:28:59;0.60;99.90
49777;DHT22;35673;51.482;7.436;2023-01-26T07:31:24;0.70;99.90
49777;DHT22;35673;51.482;7.436;2023-01-26T07:33:50;0.60;99.90
49777;DHT22;35673;51.482;7.436;2023-01-26T07:36:15;0.60;99.90
49777;DHT22;35673;51.482;7.436;2023-01-26T07:38:41;0.70;99.90
49777;DHT22;35673;51.482;7.436;2023-01-26T07:41:08;0.70;99.90
49777;DHT22;35673;51.482;7.436;2023-01-26T07:43:34;0.70;99.90
49777;DHT22;35673;51.482;7.436;2023-01-26T07:45:59;0.70;99.90
49777;DHT22;35673;51.482;7.436;2023-01-26T07:48:25;0.70;99.90
49777;DHT22;35673;51.482;7.436;2023-01-26T07:50:50;0.70;99.90
49777;DHT22;35673;51.482;7.436;2023-01-26T07:53:16;0.70;99.90
49777;DHT22;35673;51.482;7.436;2023-01-26T07:55:43;0.80;99.90
49777;DHT22;35673;51.482;7.436;2023-01-26T07:58:09;0.80;99.90
49777;DHT22;35673;51.482;7.436;2023-01-26T08:00:35;0.80;99.90
49777;DHT22;35673;51.482;7.436;2023-01-26T08:03:01;0.80;99.90
49777;DHT22;35673;51.482;7.436;2023-01-26T08:05:26;0.80;99.90
49777;DHT22;35673;51.482;7.436;2023-01-26T08:07:51;0.80;99.90
49777;DHT22;35673;51.482;7.436;2023-01-26T08:10:17;0.80;99.90
49777;DHT22;35673;51.482;7.436;2023-01-26T08:12:42;0.80;99.90
49777;DHT22;35673;51.482;7.436;2023-01-26T08:15:08;0.70;99.90
49777;DHT22;35673;51.482;7.436;2023-01-26T08:17:34;0.70;99.90
49777;DHT22;35673;51.482;7.436;2023-01-26T08:20:00;0.70;99.90
49777;DHT22;35673;51.482;7.436;2023-01-26T08:22:26;0.70;99.90
49777;DHT22;35673;51.482;7.436;2023-01-26T08:24:51;0.70;99.90
49777;DHT22;35673;51.482;7.436;2023-01-26T08:27:16;0.80;99.90
49777;DHT22;35673;51.482;7.436;2023-01-26T08:29:42;0.80;99.90
49777;DHT22;35673;51.482;7.436;2023-01-26T08:32:08;0.80;99.90
49777;DHT22;35673;51.482;7.436;2023-01-26T08:34:33;0.90;99.90
49777;DHT22;35673;51.482;7.436;2023-01-26T08:36:59;0.90;99.90
49777;DHT22;35673;51.482;7.436;2023-01-26T08:39:24;1.00;99.90
49777;DHT22;35673;51.482;7.436;2023-01-26T08:41:50;1.00;99.90
49777;DHT22;35673;51.482;7.436;2023-01-26T08:44:15;1.00;99.90
49777;DHT22;35673;51.482;7.436;2023-01-26T08:46:42;1.00;99.90
49777;DHT22;35673;51.482;7.436;2023-01-26T08:49:07;1.00;99.90
49777;DHT22;35673;51.482;7.436;2023-01-26T08:51:33;1.00;99.90
49777;DHT22;35673;51.482;7.436;2023-01-26T08:53:58;1.00;99.90
49777;DHT22;35673;51.482;7.436;2023-01-26T08:56:24;1.00;99.90
49777;DHT22;35673;51.482;7.436;2023-01-26T08:58:49;1.10;99.90
49777;DHT22;35673;51.482;7.436;2023-01-26T09:01:15;1.20;99.90
49777;DHT22;35673;51.482;7.436;2023-01-26T09:03:41;1.20;99.90
49777;DHT22;35673;51.482;7.436;2023-01-26T09:06:08;1.10;99.90
49777;DHT22;35673;51.482;7.436;2023-01-26T09:08:34;1.10;99.90
49777;DHT22;35673;51.482;7.436;2023-01-26T09:11:00;1.10;99.90
49777;DHT22;35673;51.482;7.436;2023-01-26T09:13:25;1.10;99.90
49777;DHT22;35673;51.482;7.436;2023-01-26T09:15:51;1.00;99.90
49777;DHT22;35673;51.482;7.436;2023-01-26T09:18:16;1.10;99.90
49777;DHT22;35673;51.482;7.436;2023-01-26T09:20:42;1.10;99.90
49777;DHT22;35673;51.482;7.436;2023-01-26T09:23:08;1.10;99.90
49777;DHT22;35673;51.482;7.436;2023-01-26T09:25:38;1.10;99.90
49777;DHT22;35673;51.482;7.436;2023-01-26T09:28:03;1.10;99.90
49777;DHT22;35673;51.482;7.436;2023-01-26T09:30:29;1.10;99.90
49777;DHT22;35673;51.482;7.436;2023-01-26T09:32:58;1.10;99.90
49777;DHT22;35673;51.482;7.436;2023-01-26T09:35:24;1.10;99.90
49777;DHT22;35673;51.482;7.436;2023-01-26T09:37:50;1.20;99.90
49777;DHT22;35673;51.482;7.436;2023-01-26T09:40:17;1.20;99.90
49777;DHT22;35673;51.482;7.436;2023-01-26T09:50:20;1.40;99.90
49777;DHT22;35673;51.482;7.436;2023-01-26T09:52:49;1.40;99.90
49777;DHT22;35673;51.482;7.436;2023-01-26T09:55:19;1.40;99.90
49777;DHT22;35673;51.482;7.436;2023-01-26T09:57:48;1.40;99.90
49777;DHT22;35673;51.482;7.436;2023-01-26T10:00:19;1.40;99.90
49777;DHT22;35673;51.482;7.436;2023-01-26T10:05:40;1.50;99.90
49777;DHT22;35673;51.482;7.436;2023-01-26T10:08:12;1.60;99.90
49777;DHT22;35673;51.482;7.436;2023-01-26T10:10:40;1.50;99.90
49777;DHT22;35673;51.482;7.436;2023-01-26T10:13:09;1.50;99.90
49777;DHT22;35673;51.482;7.436;2023-01-26T10:15:37;1.50;99.90
49777;DHT22;35673;51.482;7.436;2023-01-26T10:18:05;1.50;99.90
49777;DHT22;35673;51.482;7.436;2023-01-26T10:20:41;1.40;99.90
49777;DHT22;35673;51.482;7.436;2023-01-26T10:23:13;1.40;99.90
49777;DHT22;35673;51.482;7.436;2023-01-26T10:25:40;1.40;99.90
49777;DHT22;35673;51.482;7.436;2023-01-26T10:28:10;1.50;99.90
49777;DHT22;35673;51.482;7.436;2023-01-26T10:30:38;1.50;99.90
49777;DHT22;35673;51.482;7.436;2023-01-26T10:33:04;1.50;99.90
49777;DHT22;35673;51.482;7.436;2023-01-26T10:35:33;1.50;99.90
49777;DHT22;35673;51.482;7.436;2023-01-26T10:37:59;1.40;99.90
49777;DHT22;35673;51.482;7.436;2023-01-26T10:40:24;1.50;99.90
49777;DHT22;35673;51.482;7.436;2023-01-26T10:42:57;1.50;99.90
49777;DHT22;35673;51.482;7.436;2023-01-26T10:45:32;1.50;99.90
49777;DHT22;35673;51.482;7.436;2023-01-26T10:50:42;1.50;99.90
49777;DHT22;35673;51.482;7.436;2023-01-26T10:53:13;1.50;99.90
49777;DHT22;35673;51.482;7.436;2023-01-26T10:55:38;1.50;99.90
49777;DHT22;35673;51.482;7.436;2023-01-26T10:58:04;1.60;99.90
49777;DHT22;35673;51.482;7.436;2023-01-26T11:00:31;1.70;99.90
49777;DHT22;35673;51.482;7.436;2023-01-26T11:03:04;1.70;99.90
49777;DHT22;35673;51.482;7.436;2023-01-26T11:05:30;1.80;99.90
49777;DHT22;35673;51.482;7.436;2023-01-26T11:07:56;1.80;99.90
49777;DHT22;35673;51.482;7.436;2023-01-26T11:10:31;1.80;99.90
49777;DHT22;35673;51.482;7.436;2023-01-26T11:15:34;1.90;99.90
49777;DHT22;35673;51.482;7.436;2023-01-26T11:20:56;1.90;99.90
49777;DHT22;35673;51.482;7.436;2023-01-26T11:23:27;2.00;99.90
49777;DHT22;35673;51.482;7.436;2023-01-26T11:31:32;1.90;99.90
49777;DHT22;35673;51.482;7.436;2023-01-26T11:33:43;1.90;99.90
49777;DHT22;35673;51.482;7.436;2023-01-26T11:36:21;2.00;99.90
49777;DHT22;35673;51.482;7.436;2023-01-26T11:54:18;2.20;99.90
49777;DHT22;35673;51.482;7.436;2023-01-26T11:56:48;2.20;99.90
49777;DHT22;35673;51.482;7.436;2023-01-26T11:59:18;2.20;99.90
49777;DHT22;35673;51.482;7.436;2023-01-26T12:02:12;2.20;99.90
49777;DHT22;35673;51.482;7.436;2023-01-26T12:04:42;2.20;99.90
49777;DHT22;35673;51.482;7.436;2023-01-26T12:07:14;2.10;99.90
49777;DHT22;35673;51.482;7.436;2023-01-26T12:09:43;2.10;99.90
49777;DHT22;35673;51.482;7.436;2023-01-26T12:14:37;2.00;99.90
49777;DHT22;35673;51.482;7.436;2023-01-26T12:22:03;2.00;99.90
49777;DHT22;35673;51.482;7.436;2023-01-26T12:24:36;2.00;99.90
49777;DHT22;35673;51.482;7.436;2023-01-26T12:27:05;2.00;99.90
49777;DHT22;35673;51.482;7.436;2023-01-26T12:29:53;2.00;99.90
49777;DHT22;35673;51.482;7.436;2023-01-26T12:32:19;2.10;99.90
49777;DHT22;35673;51.482;7.436;2023-01-26T12:34:46;2.10;99.90
49777;DHT22;35673;51.482;7.436;2023-01-26T12:45:06;2.30;99.90
49777;DHT22;35673;51.482;7.436;2023-01-26T12:47:43;2.30;99.90
49777;DHT22;35673;51.482;7.436;2023-01-26T12:50:14;2.30;99.90
49777;DHT22;35673;51.482;7.436;2023-01-26T12:55:21;2.30;99.90
49777;DHT22;35673;51.482;7.436;2023-01-26T12:57:56;2.20;99.90
49777;DHT22;35673;51.482;7.436;2023-01-26T13:00:23;2.20;99.90
49777;DHT22;35673;51.482;7.436;2023-01-26T13:02:52;2.10;99.90
49777;DHT22;35673;51.482;7.436;2023-01-26T13:05:23;2.10;99.90
49777;DHT22;35673;51.482;7.436;2023-01-26T13:07:49;2.20;99.90
49777;DHT22;35673;51.482;7.436;2023-01-26T13:15:12;2.10;99.90
49777;DHT22;35673;51.482;7.436;2023-01-26T13:17:47;2.10;99.90
49777;DHT22;35673;51.482;7.436;2023-01-26T13:20:17;2.20;99.90
49777;DHT22;35673;51.482;7.436;2023-01-26T13:22:46;2.20;99.90
49777;DHT22;35673;51.482;7.436;2023-01-26T13:25:15;2.30;99.90
49777;DHT22;35673;51.482;7.436;2023-01-26T13:27:46;2.30;99.90
49777;DHT22;35673;51.482;7.436;2023-01-26T13:35:12;2.30;99.90
49777;DHT22;35673;51.482;7.436;2023-01-26T13:40:32;2.40;99.90
49777;DHT22;35673;51.482;7.436;2023-01-26T13:43:09;2.40;99.90
49777;DHT22;35673;51.482;7.436;2023-01-26T13:48:11;2.40;99.90
49777;DHT22;35673;51.482;7.436;2023-01-26T13:50:38;2.50;99.90
49777;DHT22;35673;51.482;7.436;2023-01-26T13:55:49;2.50;99.90
49777;DHT22;35673;51.482;7.436;2023-01-26T13:58:16;2.50;99.90
49777;DHT22;35673;51.482;7.436;2023-01-26T14:00:56;2.50;99.90
49777;DHT22;35673;51.482;7.436;2023-01-26T14:03:21;2.50;99.90
49777;DHT22;35673;51.482;7.436;2023-01-26T14:05:57;2.50;99.90
49777;DHT22;35673;51.482;7.436;2023-01-26T14:08:24;2.50;99.90
49777;DHT22;35673;51.482;7.436;2023-01-26T14:10:50;2.50;99.90
49777;DHT22;35673;51.482;7.436;2023-01-26T14:13:21;2.40;99.90
49777;DHT22;35673;51.482;7.436;2023-01-26T14:15:54;2.40;99.90
49777;DHT22;35673;51.482;7.436;2023-01-26T14:18:20;2.40;99.90
49777;DHT22;35673;51.482;7.436;2023-01-26T14:20:46;2.40;99.90
49777;DHT22;35673;51.482;7.436;2023-01-26T14:23:13;2.40;99.90
49777;DHT22;35673;51.482;7.436;2023-01-26T14:25:39;2.40;99.90
49777;DHT22;35673;51.482;7.436;2023-01-26T14:28:06;2.40;99.90
49777;DHT22;35673;51.482;7.436;2023-01-26T14:30:37;2.40;99.90
49777;DHT22;35673;51.482;7.436;2023-01-26T14:33:03;2.40;99.90
49777;DHT22;35673;51.482;7.436;2023-01-26T14:35:29;2.40;99.90
49777;DHT22;35673;51.482;7.436;2023-01-26T14:40:56;2.50;99.90
49777;DHT22;35673;51.482;7.436;2023-01-26T14:43:22;2.50;99.90
49777;DHT22;35673;51.482;7.436;2023-01-26T14:48:21;2.50;99.90
49777;DHT22;35673;51.482;7.436;2023-01-26T14:50:48;2.50;99.90
49777;DHT22;35673;51.482;7.436;2023-01-26T14:53:18;2.50;99.90
49777;DHT22;35673;51.482;7.436;2023-01-26T14:55:44;2.50;99.90
49777;DHT22;35673;51.482;7.436;2023-01-26T14:58:28;2.50;99.90
49777;DHT22;35673;51.482;7.436;2023-01-26T15:00:55;2.50;99.90
49777;DHT22;35673;51.482;7.436;2023-01-26T15:03:26;2.50;99.90
49777;DHT22;35673;51.482;7.436;2023-01-26T15:06:02;2.50;99.90
49777;DHT22;35673;51.482;7.436;2023-01-26T15:08:28;2.60;99.90
49777;DHT22;35673;51.482;7.436;2023-01-26T15:10:55;2.60;99.90
49777;DHT22;35673;51.482;7.436;2023-01-26T15:13:41;2.60;99.90
49777;DHT22;35673;51.482;7.436;2023-01-26T15:16:13;2.60;99.90
49777;DHT22;35673;51.482;7.436;2023-01-26T15:18:39;2.60;99.90
49777;DHT22;35673;51.482;7.436;2023-01-26T15:23:36;2.70;99.90
49777;DHT22;35673;51.482;7.436;2023-01-26T15:28:30;2.70;99.90
49777;DHT22;35673;51.482;7.436;2023-01-26T15:30:56;2.70;99.90
49777;DHT22;35673;51.482;7.436;2023-01-26T15:36:24;2.80;99.90
49777;DHT22;35673;51.482;7.436;2023-01-26T15:38:51;2.80;99.90
49777;DHT22;35673;51.482;7.436;2023-01-26T15:41:20;2.80;99.90
49777;DHT22;35673;51.482;7.436;2023-01-26T15:43:45;2.80;99.90
49777;DHT22;35673;51.482;7.436;2023-01-26T15:46:11;2.90;99.90
49777;DHT22;35673;51.482;7.436;2023-01-26T15:48:36;2.90;99.90
49777;DHT22;35673;51.482;7.436;2023-01-26T15:51:02;2.90;99.90
49777;DHT22;35673;51.482;7.436;2023-01-26T15:53:27;2.90;99.90
49777;DHT22;35673;51.482;7.436;2023-01-26T15:55:53;2.90;99.90
49777;DHT22;35673;51.482;7.436;2023-01-26T15:58:23;2.90;99.90
49777;DHT22;35673;51.482;7.436;2023-01-26T16:00:49;2.90;99.90
49777;DHT22;35673;51.482;7.436;2023-01-26T16:03:15;2.90;99.90
49777;DHT22;35673;51.482;7.436;2023-01-26T16:05:41;2.90;99.90
49777;DHT22;35673;51.482;7.436;2023-01-26T16:08:07;2.90;99.90
49777;DHT22;35673;51.482;7.436;2023-01-26T16:10:33;2.90;99.90
49777;DHT22;35673;51.482;7.436;2023-01-26T16:12:58;2.90;99.90
49777;DHT22;35673;51.482;7.436;2023-01-26T16:17:49;2.90;99.90
49777;DHT22;35673;51.482;7.436;2023-01-26T16:20:14;3.00;99.90
49777;DHT22;35673;51.482;7.436;2023-01-26T16:22:40;3.00;99.90
49777;DHT22;35673;51.482;7.436;2023-01-26T16:25:13;3.00;99.90
49777;DHT22;35673;51.482;7.436;2023-01-26T16:27:41;3.00;99.90
49777;DHT22;35673;51.482;7.436;2023-01-26T16:30:07;3.00;99.90
49777;DHT22;35673;51.482;7.436;2023-01-26T16:32:32;3.00;99.90
49777;DHT22;35673;51.482;7.436;2023-01-26T16:34:58;3.00;99.90
49777;DHT22;35673;51.482;7.436;2023-01-26T16:37:23;3.00;99.90
49777;DHT22;35673;51.482;7.436;2023-01-26T16:39:49;3.00;99.90
49777;DHT22;35673;51.482;7.436;2023-01-26T16:42:15;3.00;99.90
49777;DHT22;35673;51.482;7.436;2023-01-26T16:44:42;3.00;99.90
49777;DHT22;35673;51.482;7.436;2023-01-26T16:47:08;3.00;99.90
49777;DHT22;35673;51.482;7.436;2023-01-26T16:49:34;3.00;99.90
49777;DHT22;35673;51.482;7.436;2023-01-26T16:51:59;3.00;99.90
49777;DHT22;35673;51.482;7.436;2023-01-26T16:54:25;3.00;99.90
49777;DHT22;35673;51.482;7.436;2023-01-26T16:56:50;3.00;99.90
49777;DHT22;35673;51.482;7.436;2023-01-26T16:59:16;3.00;99.90
49777;DHT22;35673;51.482;7.436;2023-01-26T17:01:41;3.00;99.90
49777;DHT22;35673;51.482;7.436;2023-01-26T17:04:08;3.10;99.90
49777;DHT22;35673;51.482;7.436;2023-01-26T17:06:34;3.10;99.90
49777;DHT22;35673;51.482;7.436;2023-01-26T17:09:00;3.10;99.90
49777;DHT22;35673;51.482;7.436;2023-01-26T17:11:26;3.10;99.90
49777;DHT22;35673;51.482;7.436;2023-01-26T17:13:52;3.10;99.90
49777;DHT22;35673;51.482;7.436;2023-01-26T17:16:18;3.10;99.90
49777;DHT22;35673;51.482;7.436;2023-01-26T17:18:45;3.10;99.90
49777;DHT22;35673;51.482;7.436;2023-01-26T17:21:14;3.10;99.90
49777;DHT22;35673;51.482;7.436;2023-01-26T17:23:39;3.10;99.90
49777;DHT22;35673;51.482;7.436;2023-01-26T17:26:09;3.20;99.90
49777;DHT22;35673;51.482;7.436;2023-01-26T17:28:35;3.10;99.90
49777;DHT22;35673;51.482;7.436;2023-01-26T17:31:05;3.10;99.90